createdAt,value
2023-04-26T00:00:33.241Z,99815.23
2023-04-26T00:03:21.473Z,99815.09
2023-04-26T00:06:01.058Z,99814.27
2023-04-26T00:08:28.345Z,99820.63
2023-04-26T00:10:54.925Z,99821.92
2023-04-26T00:13:21.444Z,99820.95
2023-04-26T00:15:48.076Z,99825.02
2023-04-26T00:18:15.070Z,99829.14
2023-04-26T00:20:41.528Z,99830.13
2023-04-26T00:23:10.299Z,99832.30
2023-04-26T00:25:37.221Z,99833.89
2023-04-26T00:28:04.298Z,99835.46
2023-04-26T00:30:30.958Z,99837.67
2023-04-26T00:32:57.621Z,99842.83
2023-04-26T00:35:24.260Z,99845.11
2023-04-26T00:37:50.977Z,99844.54
2023-04-26T00:40:20.006Z,99848.67
2023-04-26T00:42:46.954Z,99849.27
2023-04-26T00:45:13.669Z,99850.21
2023-04-26T00:47:40.560Z,99850.79
2023-04-26T00:50:07.935Z,99851.17
2023-04-26T00:52:34.906Z,99851.17
2023-04-26T00:55:02.100Z,99849.00
2023-04-26T00:57:28.689Z,99848.27
2023-04-26T00:59:56.002Z,99851.61
2023-04-26T01:02:22.864Z,99850.05
2023-04-26T01:04:49.930Z,99851.46
2023-04-26T01:07:17.186Z,99851.94
2023-04-26T01:09:44.230Z,99857.05
2023-04-26T01:12:12.480Z,99859.05
2023-04-26T01:14:39.430Z,99858.73
2023-04-26T01:17:06.118Z,99860.10
2023-04-26T01:19:33.026Z,99857.13
2023-04-26T01:21:59.595Z,99858.02
2023-04-26T01:24:26.141Z,99861.84
2023-04-26T01:26:52.731Z,99863.02
2023-04-26T01:29:21.859Z,99866.21
2023-04-26T01:31:48.567Z,99865.81
2023-04-26T01:34:15.938Z,99869.12
2023-04-26T01:36:45.912Z,99827.02
2023-04-26T01:39:13.015Z,99874.44
2023-04-26T01:41:39.575Z,99869.30
2023-04-26T01:44:06.514Z,99871.54
2023-04-26T01:46:33.201Z,99872.79
2023-04-26T01:49:00.201Z,99867.19
2023-04-26T01:51:27.127Z,99865.52
2023-04-26T01:53:53.690Z,99869.52
2023-04-26T01:56:20.516Z,99869.39
2023-04-26T01:58:47.245Z,99875.94
2023-04-26T02:01:13.870Z,99874.56
2023-04-26T02:03:40.525Z,99876.74
2023-04-26T02:06:07.522Z,99877.44
2023-04-26T02:08:34.241Z,99877.06
2023-04-26T02:11:00.799Z,99879.91
2023-04-26T02:13:27.751Z,99879.93
2023-04-26T02:15:54.370Z,99881.85
2023-04-26T02:18:21.318Z,99882.19
2023-04-26T02:20:48.463Z,99885.67
2023-04-26T02:23:15.285Z,99880.70
2023-04-26T02:25:46.673Z,99882.22
2023-04-26T02:28:13.448Z,99880.08
2023-04-26T02:30:40.003Z,99883.30
2023-04-26T02:33:06.699Z,99881.94
2023-04-26T02:35:33.433Z,99871.20
2023-04-26T02:37:59.912Z,99881.86
2023-04-26T02:40:27.172Z,99878.79
2023-04-26T02:42:55.238Z,99883.77
2023-04-26T02:45:21.843Z,99883.88
2023-04-26T02:47:48.553Z,99884.15
2023-04-26T02:50:15.443Z,99886.67
2023-04-26T02:52:42.016Z,99885.39
2023-04-26T02:55:09.184Z,99880.63
2023-04-26T02:57:35.787Z,99884.63
2023-04-26T03:00:04.921Z,99888.91
2023-04-26T03:02:31.835Z,99883.48
2023-04-26T03:04:58.928Z,99884.73
2023-04-26T03:07:25.910Z,99884.52
2023-04-26T03:09:52.507Z,99882.42
2023-04-26T03:12:19.476Z,99886.79
2023-04-26T03:14:45.975Z,99890.20
2023-04-26T03:17:12.822Z,99888.16
2023-04-26T03:19:39.452Z,99897.55
2023-04-26T03:22:05.989Z,99895.34
2023-04-26T03:24:32.890Z,99900.92
2023-04-26T03:26:59.741Z,99903.36
2023-04-26T03:29:26.448Z,99904.27
2023-04-26T03:31:53.105Z,99904.52
2023-04-26T03:34:20.315Z,99910.55
2023-04-26T03:36:47.253Z,99911.63
2023-04-26T03:39:13.722Z,99898.59
2023-04-26T03:41:40.748Z,99915.84
2023-04-26T03:44:08.704Z,99918.21
2023-04-26T03:46:35.329Z,99919.55
2023-04-26T03:49:02.238Z,99917.21
2023-04-26T03:51:29.399Z,99917.85
2023-04-26T03:53:56.030Z,99918.27
2023-04-26T03:56:22.848Z,99919.48
2023-04-26T03:58:49.497Z,99922.22
2023-04-26T04:01:16.594Z,99922.74
2023-04-26T04:03:43.631Z,99924.11
2023-04-26T04:06:10.460Z,99926.91
2023-04-26T04:08:37.540Z,99926.17
2023-04-26T04:11:04.414Z,99928.89
2023-04-26T04:13:33.295Z,99930.80
2023-04-26T04:16:00.153Z,99931.95
2023-04-26T04:18:26.924Z,99937.10
2023-04-26T04:20:53.524Z,99937.54
2023-04-26T04:23:20.074Z,99930.45
2023-04-26T04:25:48.307Z,99944.31
2023-04-26T04:28:15.837Z,99948.20
2023-04-26T04:30:45.694Z,99947.17
2023-04-26T04:33:12.479Z,99950.35
2023-04-26T04:35:44.052Z,99951.96
2023-04-26T04:38:10.575Z,99935.94
2023-04-26T04:40:37.258Z,99950.34
2023-04-26T04:43:04.025Z,99952.64
2023-04-26T04:45:31.605Z,99955.92
2023-04-26T04:47:59.570Z,99954.19
2023-04-26T04:50:27.625Z,99960.63
2023-04-26T04:52:55.407Z,99961.34
2023-04-26T04:55:22.134Z,99961.30
2023-04-26T04:57:48.835Z,99958.61
2023-04-26T05:00:15.979Z,99965.20
2023-04-26T05:03:08.235Z,99968.55
2023-04-26T05:05:35.316Z,99968.73
2023-04-26T05:08:02.249Z,99971.63
2023-04-26T05:10:29.177Z,99975.48
2023-04-26T05:12:55.759Z,99978.65
2023-04-26T05:15:22.612Z,99979.55
2023-04-26T05:17:49.508Z,99983.70
2023-04-26T05:20:18.885Z,99971.64
2023-04-26T05:22:46.351Z,99986.93
2023-04-26T05:25:13.585Z,99985.77
2023-04-26T05:27:40.624Z,99988.61
2023-04-26T05:30:15.317Z,99993.13
2023-04-26T05:32:49.857Z,99998.43
2023-04-26T05:35:28.639Z,99994.85
2023-04-26T05:37:55.159Z,99998.16
2023-04-26T05:40:22.969Z,99999.91
2023-04-26T05:42:50.480Z,99988.82
2023-04-26T05:45:17.873Z,100001.81
2023-04-26T05:47:44.428Z,100000.47
2023-04-26T05:50:11.368Z,100003.54
2023-04-26T05:52:37.932Z,99998.47
2023-04-26T05:55:05.466Z,100001.72
2023-04-26T05:57:32.641Z,99998.33
2023-04-26T05:59:59.277Z,99997.67
2023-04-26T06:02:26.196Z,99998.69
2023-04-26T06:04:53.688Z,99997.45
2023-04-26T06:07:20.630Z,100000.40
2023-04-26T06:09:47.346Z,100000.84
2023-04-26T06:12:14.352Z,100001.48
2023-04-26T06:14:41.927Z,100007.39
2023-04-26T06:17:13.690Z,100005.14
2023-04-26T06:19:40.452Z,100010.91
2023-04-26T06:22:06.933Z,99993.31
2023-04-26T06:24:33.716Z,100002.33
2023-04-26T06:27:00.476Z,99999.73
2023-04-26T06:29:31.750Z,99999.94
2023-04-26T06:31:58.253Z,100001.36
2023-04-26T06:34:25.359Z,100003.20
2023-04-26T06:36:52.257Z,100005.98
2023-04-26T06:39:19.252Z,99990.98
2023-04-26T06:41:49.228Z,100004.75
2023-04-26T06:44:24.999Z,100009.75
2023-04-26T06:46:55.346Z,100012.42
2023-04-26T06:49:25.354Z,100011.17
2023-04-26T06:51:53.588Z,99997.61
2023-04-26T06:54:33.441Z,99972.13
2023-04-26T06:57:01.705Z,100011.84
2023-04-26T06:59:28.459Z,100014.62
2023-04-26T07:01:55.360Z,100018.98
2023-04-26T07:04:22.529Z,100021.02
2023-04-26T07:06:49.898Z,100022.24
2023-04-26T07:09:17.028Z,99980.04
2023-04-26T07:11:47.066Z,100023.95
2023-04-26T07:14:21.501Z,100028.71
2023-04-26T07:16:48.009Z,100026.34
2023-04-26T07:19:14.564Z,100026.83
2023-04-26T07:21:41.228Z,100028.88
2023-04-26T07:24:08.031Z,100028.94
2023-04-26T07:26:36.378Z,100033.68
2023-04-26T07:29:06.456Z,100029.30
2023-04-26T07:31:33.103Z,100032.63
2023-04-26T07:33:59.692Z,100029.36
2023-04-26T07:36:27.348Z,100034.04
2023-04-26T07:38:54.124Z,100031.69
2023-04-26T07:41:20.764Z,100029.17
2023-04-26T07:43:47.385Z,100036.30
2023-04-26T07:46:14.047Z,100034.40
2023-04-26T07:48:40.882Z,100034.02
2023-04-26T07:51:12.218Z,100032.99
2023-04-26T07:53:39.748Z,100035.21
2023-04-26T07:56:07.534Z,100036.88
2023-04-26T07:58:35.891Z,100034.36
2023-04-26T08:01:05.220Z,100034.89
2023-04-26T08:03:32.041Z,100040.48
2023-04-26T08:05:59.176Z,100044.48
2023-04-26T08:08:26.440Z,100043.98
2023-04-26T08:10:56.232Z,100043.14
2023-04-26T08:13:24.451Z,100045.13
2023-04-26T08:15:55.445Z,100047.63
2023-04-26T08:18:21.932Z,100046.20
2023-04-26T08:20:48.737Z,100047.64
2023-04-26T08:23:15.402Z,100046.38
2023-04-26T08:25:41.968Z,100047.50
2023-04-26T08:28:08.917Z,100049.31
2023-04-26T08:30:35.578Z,100044.30
2023-04-26T08:33:02.904Z,100045.14
2023-04-26T08:35:29.671Z,100046.46
2023-04-26T08:37:56.293Z,100047.83
2023-04-26T08:40:24.434Z,100048.36
2023-04-26T08:42:53.260Z,100047.89
2023-04-26T08:45:21.070Z,100053.89
2023-04-26T08:47:49.965Z,100055.51
2023-04-26T08:50:20.545Z,100058.89
2023-04-26T08:52:49.644Z,100057.22
2023-04-26T08:55:18.138Z,100061.57
2023-04-26T08:57:49.318Z,100050.71
2023-04-26T09:00:17.628Z,100066.35
2023-04-26T09:02:53.554Z,100065.16
2023-04-26T09:05:23.793Z,100066.10
2023-04-26T09:07:52.677Z,100072.71
2023-04-26T09:10:21.562Z,100081.80
2023-04-26T09:12:54.918Z,100083.61
2023-04-26T09:15:23.735Z,100087.45
2023-04-26T09:17:51.238Z,100088.91
2023-04-26T09:20:17.973Z,100085.13
2023-04-26T09:22:45.503Z,100082.05
2023-04-26T09:25:13.004Z,100081.60
2023-04-26T09:27:44.140Z,100088.92
2023-04-26T09:30:12.493Z,100086.23
2023-04-26T09:33:02.264Z,100085.95
2023-04-26T09:35:36.126Z,100089.19
2023-04-26T09:38:12.333Z,100090.58
2023-04-26T09:40:46.280Z,100092.55
2023-04-26T09:43:18.268Z,100103.56
2023-04-26T09:45:56.565Z,100102.06
2023-04-26T09:48:33.783Z,100099.91
2023-04-26T09:51:03.863Z,100098.88
2023-04-26T09:53:40.623Z,100102.77
2023-04-26T09:56:10.960Z,100100.25
2023-04-26T09:58:40.088Z,100097.64
2023-04-26T10:01:08.195Z,100093.50
2023-04-26T10:03:36.547Z,100090.54
2023-04-26T10:06:05.243Z,100093.83
2023-04-26T10:08:32.530Z,100095.81
2023-04-26T10:11:03.803Z,100100.13
2023-04-26T10:13:33.882Z,100099.98
2023-04-26T10:16:03.121Z,100098.52
2023-04-26T10:18:31.124Z,100097.63
2023-04-26T10:21:06.986Z,100099.85
2023-04-26T10:23:34.940Z,100096.08
2023-04-26T10:26:01.596Z,100097.73
2023-04-26T10:28:45.153Z,100095.79
2023-04-26T10:31:13.349Z,100103.45
2023-04-26T10:33:40.217Z,100103.16
2023-04-26T10:36:11.473Z,100108.91
2023-04-26T10:39:03.780Z,100111.84
2023-04-26T10:41:35.782Z,100113.52
2023-04-26T10:44:42.180Z,100115.71
2023-04-26T10:47:28.612Z,100118.66
2023-04-26T10:50:21.467Z,100116.44
2023-04-26T10:53:03.119Z,100118.29
2023-04-26T10:55:41.002Z,100121.83
2023-04-26T10:58:29.743Z,100117.77
2023-04-26T11:01:16.982Z,100124.59
2023-04-26T11:03:56.800Z,100128.63
2023-04-26T11:06:26.117Z,100115.47
2023-04-26T11:08:53.719Z,100130.59
2023-04-26T11:11:26.576Z,100131.77
2023-04-26T11:13:53.522Z,100133.60
2023-04-26T11:16:20.058Z,100130.60
2023-04-26T11:18:47.542Z,100128.84
2023-04-26T11:21:17.241Z,100130.88
2023-04-26T11:23:53.626Z,100134.60
2023-04-26T11:26:21.471Z,100138.67
2023-04-26T11:28:48.885Z,100146.14
2023-04-26T11:31:21.557Z,100144.54
2023-04-26T11:33:56.706Z,100156.45
2023-04-26T11:36:24.518Z,100159.45
2023-04-26T11:38:51.780Z,100161.86
2023-04-26T11:41:18.767Z,100162.84
2023-04-26T11:43:45.797Z,100135.70
2023-04-26T11:46:12.511Z,100159.52
2023-04-26T11:48:40.791Z,100159.27
2023-04-26T11:51:08.753Z,100162.47
2023-04-26T11:53:42.673Z,100163.16
2023-04-26T11:56:19.895Z,100164.39
2023-04-26T11:58:53.255Z,100162.80
2023-04-26T12:01:28.034Z,100160.00
2023-04-26T12:03:59.072Z,100167.91
2023-04-26T12:06:32.431Z,100174.27
2023-04-26T12:09:02.382Z,100153.09
2023-04-26T12:11:29.349Z,100179.70
2023-04-26T12:13:58.221Z,100176.98
2023-04-26T12:16:26.600Z,100176.16
2023-04-26T12:18:57.347Z,100173.92
2023-04-26T12:21:25.797Z,100175.55
2023-04-26T12:23:53.843Z,100173.86
2023-04-26T12:26:21.400Z,100176.23
2023-04-26T12:28:48.145Z,100181.69
2023-04-26T12:31:15.078Z,100183.45
2023-04-26T12:33:41.784Z,100181.09
2023-04-26T12:36:11.018Z,100185.20
2023-04-26T12:38:38.614Z,100189.36
2023-04-26T12:41:05.466Z,100187.64
2023-04-26T12:43:32.235Z,100189.50
2023-04-26T12:45:59.540Z,100195.74
2023-04-26T12:48:28.626Z,100189.98
2023-04-26T12:50:55.753Z,100190.83
2023-04-26T12:53:23.865Z,100199.77
2023-04-26T12:55:51.180Z,100198.04
2023-04-26T12:58:18.440Z,100196.63
2023-04-26T13:00:44.957Z,100193.83
2023-04-26T13:03:16.922Z,100197.16
2023-04-26T13:05:44.025Z,100199.33
2023-04-26T13:08:10.831Z,100202.55
2023-04-26T13:10:38.291Z,100201.39
2023-04-26T13:13:05.937Z,100202.40
2023-04-26T13:15:32.661Z,100203.64
2023-04-26T13:18:02.415Z,100204.13
2023-04-26T13:20:30.845Z,100203.39
2023-04-26T13:22:57.638Z,100205.31
2023-04-26T13:25:24.296Z,100202.79
2023-04-26T13:27:53.108Z,100201.84
2023-04-26T13:30:19.816Z,100211.45
2023-04-26T13:32:46.659Z,100210.30
2023-04-26T13:35:13.483Z,100211.17
2023-04-26T13:37:41.210Z,100213.02
2023-04-26T13:40:10.557Z,100215.34
2023-04-26T13:42:38.259Z,100221.79
2023-04-26T13:45:25.216Z,100221.75
2023-04-26T13:47:52.007Z,100223.92
2023-04-26T13:50:18.574Z,100222.54
2023-04-26T13:52:45.377Z,100224.05
2023-04-26T13:55:14.156Z,100219.73
2023-04-26T13:57:41.740Z,100221.97
2023-04-26T14:00:09.006Z,100225.75
2023-04-26T14:02:38.583Z,100219.60
2023-04-26T14:05:07.360Z,100236.28
2023-04-26T14:07:34.202Z,100242.56
2023-04-26T14:10:00.984Z,100244.43
2023-04-26T14:12:28.660Z,100249.26
2023-04-26T14:14:55.311Z,100206.27
2023-04-26T14:17:22.244Z,100254.60
2023-04-26T14:19:48.863Z,100256.98
2023-04-26T14:22:17.020Z,100258.11
2023-04-26T14:24:43.771Z,100258.39
2023-04-26T14:27:11.882Z,100262.91
2023-04-26T14:29:38.354Z,100266.05
2023-04-26T14:32:06.600Z,100268.73
2023-04-26T14:34:35.466Z,100278.05
2023-04-26T14:37:03.410Z,100274.55
2023-04-26T14:39:30.266Z,100274.90
2023-04-26T14:41:57.252Z,100281.27
2023-04-26T14:44:24.951Z,100279.08
2023-04-26T14:46:52.374Z,100280.91
2023-04-26T14:49:19.178Z,100286.05
2023-04-26T14:51:45.783Z,100285.41
2023-04-26T14:54:15.191Z,100284.88
2023-04-26T14:56:41.967Z,100288.75
2023-04-26T14:59:08.562Z,100287.35
2023-04-26T15:01:35.499Z,100289.79
2023-04-26T15:04:02.323Z,100291.72
2023-04-26T15:06:32.315Z,100290.79
2023-04-26T15:08:59.963Z,100292.05
2023-04-26T15:11:26.508Z,100297.24
2023-04-26T15:13:53.092Z,100298.69
2023-04-26T15:16:20.120Z,100296.59
2023-04-26T15:18:46.675Z,100296.63
2023-04-26T15:21:19.729Z,100297.76
2023-04-26T15:23:47.124Z,100305.48
2023-04-26T15:26:13.976Z,100305.13
2023-04-26T15:28:40.714Z,100304.70
2023-04-26T15:31:09.681Z,100309.98
2023-04-26T15:33:36.488Z,100310.80
2023-04-26T15:36:03.292Z,100309.44
2023-04-26T15:38:30.306Z,100308.66
2023-04-26T15:40:56.860Z,100313.76
2023-04-26T15:43:23.732Z,100294.88
2023-04-26T15:45:51.003Z,100309.83
2023-04-26T15:48:17.668Z,100312.48
2023-04-26T15:50:44.314Z,100306.46
2023-04-26T15:53:11.356Z,100295.21
2023-04-26T15:55:38.078Z,100314.41
2023-04-26T15:58:04.771Z,100314.85
2023-04-26T16:00:34.067Z,100313.66
2023-04-26T16:03:01.463Z,100311.63
2023-04-26T16:05:28.232Z,100309.10
2023-04-26T16:07:55.264Z,100310.67
2023-04-26T16:10:23.240Z,100310.74
2023-04-26T16:12:52.907Z,100309.36
2023-04-26T16:15:21.912Z,100311.79
2023-04-26T16:17:48.764Z,100313.15
2023-04-26T16:20:15.931Z,100318.68
2023-04-26T16:22:45.417Z,100317.91
2023-04-26T16:25:12.106Z,100316.88
2023-04-26T16:27:38.629Z,100317.16
2023-04-26T16:30:06.891Z,100282.27
2023-04-26T16:32:33.919Z,100317.38
2023-04-26T16:35:00.598Z,100317.45
2023-04-26T16:37:30.886Z,100315.51
2023-04-26T16:39:57.985Z,100318.34
2023-04-26T16:42:24.501Z,100323.35
2023-04-26T16:44:52.840Z,100320.38
2023-04-26T16:47:19.555Z,100327.05
2023-04-26T16:49:46.211Z,100323.70
2023-04-26T16:52:12.850Z,100322.65
2023-04-26T16:54:39.375Z,100328.36
2023-04-26T16:57:06.354Z,100331.66
2023-04-26T16:59:35.768Z,100333.66
2023-04-26T17:02:02.334Z,100319.83
2023-04-26T17:04:29.760Z,100332.41
2023-04-26T17:06:56.704Z,100331.43
2023-04-26T17:09:23.160Z,100328.80
2023-04-26T17:11:50.422Z,100333.42
2023-04-26T17:14:17.139Z,100339.33
2023-04-26T17:16:44.080Z,100342.55
2023-04-26T17:19:11.005Z,100344.73
2023-04-26T17:21:37.891Z,100348.89
2023-04-26T17:24:05.635Z,100348.65
2023-04-26T17:26:32.553Z,100350.72
2023-04-26T17:28:59.198Z,100354.15
2023-04-26T17:31:26.010Z,100355.16
2023-04-26T17:33:54.801Z,100356.42
2023-04-26T17:36:22.129Z,100361.11
2023-04-26T17:38:48.825Z,100362.30
2023-04-26T17:41:18.605Z,100364.56
2023-04-26T17:43:45.444Z,100363.80
2023-04-26T17:46:12.390Z,100360.40
2023-04-26T17:48:39.582Z,100363.71
2023-04-26T17:51:06.381Z,100359.95
2023-04-26T17:53:33.057Z,100368.15
2023-04-26T17:56:00.233Z,100375.39
2023-04-26T17:58:27.313Z,100383.14
2023-04-26T18:00:54.103Z,100386.83
2023-04-26T18:03:20.985Z,100386.48
2023-04-26T18:05:48.686Z,100339.42
2023-04-26T18:08:15.192Z,100395.20
2023-04-26T18:10:41.906Z,100401.27
2023-04-26T18:13:10.540Z,100351.75
2023-04-26T18:15:37.097Z,100401.22
2023-04-26T18:18:06.169Z,100403.38
2023-04-26T18:20:35.201Z,100403.00
2023-04-26T18:23:02.003Z,100397.45
2023-04-26T18:25:28.548Z,100403.12
2023-04-26T18:27:55.237Z,100404.92
2023-04-26T18:30:21.921Z,100407.69
2023-04-26T18:32:51.163Z,100406.92
2023-04-26T18:35:18.156Z,100411.20
2023-04-26T18:37:47.722Z,100414.37
2023-04-26T18:40:16.459Z,100415.55
2023-04-26T18:42:44.606Z,100422.65
2023-04-26T18:45:11.928Z,100419.30
2023-04-26T18:47:38.581Z,100422.17
2023-04-26T18:50:05.832Z,100427.86
2023-04-26T18:52:34.880Z,100429.39
2023-04-26T18:55:01.743Z,100426.45
2023-04-26T18:57:31.774Z,100419.54
2023-04-26T19:00:01.264Z,100435.26
2023-04-26T19:02:28.077Z,100439.49
2023-04-26T19:04:55.381Z,100443.06
2023-04-26T19:07:23.057Z,100444.03
2023-04-26T19:09:54.159Z,100441.83
2023-04-26T19:12:21.757Z,100446.58
2023-04-26T19:14:48.432Z,100447.21
2023-04-26T19:17:16.016Z,100449.95
2023-04-26T19:19:42.838Z,100451.73
2023-04-26T19:22:09.466Z,100458.39
2023-04-26T19:24:36.301Z,100455.83
2023-04-26T19:27:04.093Z,100458.57
2023-04-26T19:29:30.743Z,100460.73
2023-04-26T19:31:59.541Z,100456.50
2023-04-26T19:34:26.458Z,100460.15
2023-04-26T19:36:53.055Z,100461.48
2023-04-26T19:39:21.251Z,100457.71
2023-04-26T19:41:49.631Z,100459.55
2023-04-26T19:44:16.178Z,100459.15
2023-04-26T19:46:42.781Z,100459.17
2023-04-26T19:49:09.564Z,100456.61
2023-04-26T19:51:36.088Z,100451.55
2023-04-26T19:54:02.719Z,100456.83
2023-04-26T19:56:29.373Z,100460.52
2023-04-26T19:58:56.010Z,100462.00
2023-04-26T20:01:23.103Z,100460.72
2023-04-26T20:03:50.247Z,100457.47
2023-04-26T20:06:16.878Z,100461.57
2023-04-26T20:08:43.546Z,100461.27
2023-04-26T20:11:14.627Z,100464.45
2023-04-26T20:13:42.201Z,100464.45
2023-04-26T20:16:09.973Z,100469.69
2023-04-26T20:18:36.878Z,100470.73
2023-04-26T20:21:04.387Z,100473.55
2023-04-26T20:23:31.322Z,100472.64
2023-04-26T20:25:58.238Z,100458.50
2023-04-26T20:28:25.554Z,100475.95
2023-04-26T20:30:52.483Z,100474.29
2023-04-26T20:33:22.873Z,100475.89
2023-04-26T20:35:52.811Z,100482.40
2023-04-26T20:38:20.520Z,100479.23
2023-04-26T20:40:48.210Z,100466.73
2023-04-26T20:43:15.503Z,100476.14
2023-04-26T20:45:42.246Z,100477.75
2023-04-26T20:48:09.154Z,100477.27
2023-04-26T20:50:36.596Z,100482.04
2023-04-26T20:53:03.987Z,100479.21
2023-04-26T20:55:30.626Z,100479.92
2023-04-26T20:57:57.221Z,100480.09
2023-04-26T21:00:24.061Z,100479.94
2023-04-26T21:02:50.837Z,100481.26
2023-04-26T21:05:17.499Z,100483.67
2023-04-26T21:07:44.169Z,100488.94
2023-04-26T21:10:10.957Z,100491.59
2023-04-26T21:12:37.717Z,100493.84
2023-04-26T21:15:05.476Z,100497.63
2023-04-26T21:17:32.300Z,100498.59
2023-04-26T21:19:58.978Z,100501.56
2023-04-26T21:22:25.437Z,100502.06
2023-04-26T21:24:52.271Z,100505.88
2023-04-26T21:27:18.887Z,100506.88
2023-04-26T21:29:45.456Z,100511.00
2023-04-26T21:32:12.025Z,100507.61
2023-04-26T21:34:38.700Z,100516.13
2023-04-26T21:37:05.733Z,100515.90
2023-04-26T21:39:32.666Z,100521.80
2023-04-26T21:41:59.343Z,100523.65
2023-04-26T21:44:25.860Z,100528.13
2023-04-26T21:46:52.718Z,100530.54
2023-04-26T21:49:19.398Z,100531.30
2023-04-26T21:51:45.951Z,100534.06
2023-04-26T21:54:13.136Z,100534.48
2023-04-26T21:56:40.748Z,100533.20
2023-04-26T21:59:08.433Z,100536.80
2023-04-26T22:01:35.505Z,100535.69
2023-04-26T22:04:03.361Z,100538.60
2023-04-26T22:06:29.948Z,100541.33
2023-04-26T22:08:56.574Z,100542.13
2023-04-26T22:11:23.149Z,100548.16
2023-04-26T22:13:50.150Z,100549.50
2023-04-26T22:16:16.874Z,100555.88
2023-04-26T22:18:43.697Z,100553.04
2023-04-26T22:21:10.712Z,100553.88
2023-04-26T22:23:37.453Z,100555.36
2023-04-26T22:26:04.110Z,100557.56
2023-04-26T22:28:30.578Z,100559.41
2023-04-26T22:30:57.303Z,100559.57
2023-04-26T22:33:24.341Z,100561.44
2023-04-26T22:35:51.210Z,100562.02
2023-04-26T22:38:17.979Z,100556.62
2023-04-26T22:40:45.188Z,100562.44
2023-04-26T22:43:11.682Z,100567.25
2023-04-26T22:45:38.580Z,100571.58
2023-04-26T22:48:05.751Z,100572.73
2023-04-26T22:50:32.266Z,100576.53
2023-04-26T22:52:58.919Z,100579.95
2023-04-26T22:55:25.537Z,100579.85
2023-04-26T22:57:52.174Z,100582.91
2023-04-26T23:00:19.653Z,100586.84
2023-04-26T23:02:46.501Z,100589.41
2023-04-26T23:05:13.193Z,100593.73
2023-04-26T23:07:40.473Z,100597.47
2023-04-26T23:10:07.750Z,100602.70
2023-04-26T23:12:35.474Z,100603.38
2023-04-26T23:15:04.680Z,100603.34
2023-04-26T23:17:33.413Z,100602.27
2023-04-26T23:20:00.306Z,100603.09
2023-04-26T23:22:27.661Z,100608.10
2023-04-26T23:24:54.371Z,100607.69
2023-04-26T23:27:20.892Z,100605.00
2023-04-26T23:29:49.301Z,100612.30
2023-04-26T23:32:16.046Z,100616.30
2023-04-26T23:34:42.646Z,100616.44
2023-04-26T23:37:09.416Z,100615.02
2023-04-26T23:39:35.977Z,100616.04
2023-04-26T23:42:03.191Z,100599.38
2023-04-26T23:44:29.772Z,100617.44
2023-04-26T23:46:56.378Z,100617.19
2023-04-26T23:49:23.813Z,100615.41
2023-04-26T23:51:50.469Z,100613.61
2023-04-26T23:54:16.988Z,100615.89
2023-04-26T23:56:43.572Z,100616.55
2023-04-26T23:59:10.522Z,100620.48
